sensor_id;sensor_type;location;lat;lon;timestamp;P1;durP1;ratioP1;P2;durP2;ratioP2
31584;SDS011;18191;51.288;12.390;2023-09-30T00:00:49;10.90;;;1.50;;
31584;SDS011;18191;51.288;12.390;2023-09-30T00:05:40;3.15;;;0.90;;
31584;SDS011;18191;51.288;12.390;2023-09-30T00:10:30;4.80;;;0.90;;
31584;SDS011;18191;51.288;12.390;2023-09-30T00:15:20;36.28;;;1.85;;
31584;SDS011;18191;51.288;12.390;2023-09-30T00:20:10;12.73;;;1.25;;
31584;SDS011;18191;51.288;12.390;2023-09-30T00:29:51;5.30;;;0.95;;
31584;SDS011;18191;51.288;12.390;2023-09-30T00:34:41;10.25;;;1.98;;
31584;SDS011;18191;51.288;12.390;2023-09-30T00:39:33;13.82;;;1.83;;
31584;SDS011;18191;51.288;12.390;2023-09-30T00:44:23;11.15;;;1.80;;
31584;SDS011;18191;51.288;12.390;2023-09-30T00:49:13;8.00;;;1.63;;
31584;SDS011;18191;51.288;12.390;2023-09-30T00:58:54;5.88;;;1.50;;
31584;SDS011;18191;51.288;12.390;2023-09-30T01:08:36;12.50;;;5.00;;
31584;SDS011;18191;51.288;12.390;2023-09-30T01:13:35;6.60;;;1.70;;
31584;SDS011;18191;51.288;12.390;2023-09-30T01:18:26;11.55;;;1.90;;
31584;SDS011;18191;51.288;12.390;2023-09-30T01:23:16;9.88;;;1.95;;
31584;SDS011;18191;51.288;12.390;2023-09-30T01:28:07;4.53;;;0.90;;
31584;SDS011;18191;51.288;12.390;2023-09-30T01:37:48;7.73;;;1.20;;
31584;SDS011;18191;51.288;12.390;2023-09-30T01:42:38;6.72;;;1.30;;
31584;SDS011;18191;51.288;12.390;2023-09-30T01:52:18;16.67;;;2.15;;
31584;SDS011;18191;51.288;12.390;2023-09-30T01:57:09;10.55;;;1.95;;
31584;SDS011;18191;51.288;12.390;2023-09-30T02:06:49;8.70;;;1.77;;
31584;SDS011;18191;51.288;12.390;2023-09-30T02:11:40;14.35;;;1.83;;
31584;SDS011;18191;51.288;12.390;2023-09-30T02:16:31;7.55;;;2.17;;
31584;SDS011;18191;51.288;12.390;2023-09-30T02:21:21;13.60;;;2.47;;
31584;SDS011;18191;51.288;12.390;2023-09-30T02:26:12;13.52;;;1.75;;
31584;SDS011;18191;51.288;12.390;2023-09-30T02:35:52;15.32;;;2.83;;
31584;SDS011;18191;51.288;12.390;2023-09-30T02:40:44;10.23;;;2.28;;
31584;SDS011;18191;51.288;12.390;2023-09-30T02:45:36;8.35;;;2.45;;
31584;SDS011;18191;51.288;12.390;2023-09-30T02:50:26;16.77;;;2.33;;
31584;SDS011;18191;51.288;12.390;2023-09-30T02:55:16;12.48;;;2.40;;
31584;SDS011;18191;51.288;12.390;2023-09-30T03:00:08;13.40;;;2.83;;
31584;SDS011;18191;51.288;12.390;2023-09-30T03:05:13;16.13;;;2.25;;
31584;SDS011;18191;51.288;12.390;2023-09-30T03:10:04;17.80;;;2.95;;
31584;SDS011;18191;51.288;12.390;2023-09-30T03:14:58;8.52;;;2.75;;
31584;SDS011;18191;51.288;12.390;2023-09-30T03:19:48;9.13;;;2.55;;
31584;SDS011;18191;51.288;12.390;2023-09-30T03:24:40;10.55;;;2.95;;
31584;SDS011;18191;51.288;12.390;2023-09-30T03:29:31;16.60;;;3.03;;
31584;SDS011;18191;51.288;12.390;2023-09-30T03:34:21;9.68;;;2.90;;
31584;SDS011;18191;51.288;12.390;2023-09-30T03:39:11;11.57;;;3.75;;
31584;SDS011;18191;51.288;12.390;2023-09-30T03:44:05;11.73;;;2.85;;
31584;SDS011;18191;51.288;12.390;2023-09-30T03:48:55;22.98;;;3.30;;
31584;SDS011;18191;51.288;12.390;2023-09-30T03:53:45;10.27;;;2.87;;
31584;SDS011;18191;51.288;12.390;2023-09-30T03:58:35;12.93;;;2.95;;
31584;SDS011;18191;51.288;12.390;2023-09-30T04:03:28;14.07;;;3.38;;
31584;SDS011;18191;51.288;12.390;2023-09-30T04:08:19;13.57;;;2.65;;
31584;SDS011;18191;51.288;12.390;2023-09-30T04:13:09;11.73;;;2.75;;
31584;SDS011;18191;51.288;12.390;2023-09-30T04:18:01;28.80;;;3.63;;
31584;SDS011;18191;51.288;12.390;2023-09-30T04:22:52;12.73;;;2.90;;
31584;SDS011;18191;51.288;12.390;2023-09-30T04:27:47;13.75;;;2.35;;
31584;SDS011;18191;51.288;12.390;2023-09-30T04:32:38;15.25;;;3.08;;
31584;SDS011;18191;51.288;12.390;2023-09-30T04:37:28;15.10;;;3.03;;
31584;SDS011;18191;51.288;12.390;2023-09-30T04:42:18;15.80;;;2.60;;
31584;SDS011;18191;51.288;12.390;2023-09-30T04:47:09;16.02;;;3.25;;
31584;SDS011;18191;51.288;12.390;2023-09-30T04:51:59;15.07;;;2.75;;
31584;SDS011;18191;51.288;12.390;2023-09-30T04:56:50;26.75;;;3.63;;
31584;SDS011;18191;51.288;12.390;2023-09-30T05:06:32;14.27;;;2.60;;
31584;SDS011;18191;51.288;12.390;2023-09-30T05:11:22;15.77;;;3.22;;
31584;SDS011;18191;51.288;12.390;2023-09-30T05:16:13;18.17;;;2.95;;
31584;SDS011;18191;51.288;12.390;2023-09-30T05:21:03;15.23;;;2.83;;
31584;SDS011;18191;51.288;12.390;2023-09-30T05:25:53;21.65;;;2.63;;
31584;SDS011;18191;51.288;12.390;2023-09-30T05:30:43;17.80;;;3.07;;
31584;SDS011;18191;51.288;12.390;2023-09-30T05:35:35;21.05;;;3.15;;
31584;SDS011;18191;51.288;12.390;2023-09-30T05:40:25;9.90;;;3.28;;
31584;SDS011;18191;51.288;12.390;2023-09-30T05:45:16;10.75;;;2.90;;
31584;SDS011;18191;51.288;12.390;2023-09-30T05:50:07;15.47;;;2.23;;
31584;SDS011;18191;51.288;12.390;2023-09-30T05:54:58;11.52;;;2.70;;
31584;SDS011;18191;51.288;12.390;2023-09-30T05:59:50;17.33;;;3.33;;
31584;SDS011;18191;51.288;12.390;2023-09-30T06:04:40;18.63;;;2.88;;
31584;SDS011;18191;51.288;12.390;2023-09-30T06:09:31;12.25;;;2.45;;
31584;SDS011;18191;51.288;12.390;2023-09-30T06:14:21;10.50;;;3.08;;
31584;SDS011;18191;51.288;12.390;2023-09-30T06:19:11;21.05;;;3.92;;
31584;SDS011;18191;51.288;12.390;2023-09-30T06:24:01;9.38;;;3.40;;
31584;SDS011;18191;51.288;12.390;2023-09-30T06:28:51;14.77;;;2.90;;
31584;SDS011;18191;51.288;12.390;2023-09-30T06:33:44;16.42;;;2.83;;
31584;SDS011;18191;51.288;12.390;2023-09-30T06:38:34;21.03;;;4.00;;
31584;SDS011;18191;51.288;12.390;2023-09-30T06:43:24;17.88;;;2.72;;
31584;SDS011;18191;51.288;12.390;2023-09-30T06:48:14;13.52;;;2.22;;
31584;SDS011;18191;51.288;12.390;2023-09-30T06:53:05;12.60;;;2.33;;
31584;SDS011;18191;51.288;12.390;2023-09-30T06:57:56;13.68;;;2.05;;
31584;SDS011;18191;51.288;12.390;2023-09-30T07:02:46;18.20;;;2.53;;
31584;SDS011;18191;51.288;12.390;2023-09-30T07:07:36;18.52;;;3.17;;
31584;SDS011;18191;51.288;12.390;2023-09-30T07:12:27;13.07;;;2.20;;
31584;SDS011;18191;51.288;12.390;2023-09-30T07:17:17;15.05;;;2.10;;
31584;SDS011;18191;51.288;12.390;2023-09-30T07:26:58;11.95;;;2.72;;
31584;SDS011;18191;51.288;12.390;2023-09-30T07:36:40;11.60;;;2.28;;
31584;SDS011;18191;51.288;12.390;2023-09-30T07:41:34;6.90;;;1.80;;
31584;SDS011;18191;51.288;12.390;2023-09-30T07:46:25;13.10;;;3.20;;
31584;SDS011;18191;51.288;12.390;2023-09-30T07:51:16;9.93;;;2.03;;
31584;SDS011;18191;51.288;12.390;2023-09-30T07:56:06;14.65;;;3.60;;
31584;SDS011;18191;51.288;12.390;2023-09-30T08:05:46;12.13;;;1.85;;
31584;SDS011;18191;51.288;12.390;2023-09-30T08:10:36;14.80;;;2.97;;
31584;SDS011;18191;51.288;12.390;2023-09-30T08:15:27;9.23;;;2.13;;
31584;SDS011;18191;51.288;12.390;2023-09-30T08:20:17;11.25;;;2.03;;
31584;SDS011;18191;51.288;12.390;2023-09-30T08:25:09;13.65;;;2.65;;
31584;SDS011;18191;51.288;12.390;2023-09-30T08:30:00;17.33;;;2.20;;
31584;SDS011;18191;51.288;12.390;2023-09-30T08:34:55;12.18;;;2.75;;
31584;SDS011;18191;51.288;12.390;2023-09-30T08:39:45;12.95;;;2.42;;
31584;SDS011;18191;51.288;12.390;2023-09-30T08:44:35;13.45;;;1.83;;
31584;SDS011;18191;51.288;12.390;2023-09-30T08:54:16;18.02;;;2.40;;
31584;SDS011;18191;51.288;12.390;2023-09-30T08:59:06;11.00;;;2.72;;
31584;SDS011;18191;51.288;12.390;2023-09-30T09:03:57;8.57;;;2.20;;
31584;SDS011;18191;51.288;12.390;2023-09-30T09:08:47;14.00;;;2.50;;
31584;SDS011;18191;51.288;12.390;2023-09-30T09:13:47;17.90;;;2.42;;
31584;SDS011;18191;51.288;12.390;2023-09-30T09:18:39;23.60;;;2.42;;
31584;SDS011;18191;51.288;12.390;2023-09-30T09:23:30;11.30;;;1.75;;
31584;SDS011;18191;51.288;12.390;2023-09-30T09:28:33;10.13;;;2.08;;
31584;SDS011;18191;51.288;12.390;2023-09-30T09:33:31;14.00;;;1.80;;
31584;SDS011;18191;51.288;12.390;2023-09-30T09:38:24;17.73;;;1.92;;
31584;SDS011;18191;51.288;12.390;2023-09-30T09:43:14;12.38;;;1.85;;
31584;SDS011;18191;51.288;12.390;2023-09-30T09:48:06;10.13;;;1.70;;
31584;SDS011;18191;51.288;12.390;2023-09-30T09:52:56;11.70;;;2.10;;
31584;SDS011;18191;51.288;12.390;2023-09-30T09:57:49;15.38;;;2.28;;
31584;SDS011;18191;51.288;12.390;2023-09-30T10:02:40;11.60;;;2.60;;
31584;SDS011;18191;51.288;12.390;2023-09-30T10:07:33;26.60;;;2.35;;
31584;SDS011;18191;51.288;12.390;2023-09-30T10:12:25;9.63;;;1.42;;
31584;SDS011;18191;51.288;12.390;2023-09-30T10:17:15;11.45;;;1.58;;
31584;SDS011;18191;51.288;12.390;2023-09-30T10:32:18;17.50;;;3.47;;
31584;SDS011;18191;51.288;12.390;2023-09-30T10:37:21;15.02;;;1.73;;
31584;SDS011;18191;51.288;12.390;2023-09-30T10:42:27;21.95;;;2.45;;
31584;SDS011;18191;51.288;12.390;2023-09-30T10:52:21;16.15;;;2.10;;
31584;SDS011;18191;51.288;12.390;2023-09-30T10:57:12;10.23;;;1.92;;
31584;SDS011;18191;51.288;12.390;2023-09-30T11:02:03;8.27;;;1.98;;
31584;SDS011;18191;51.288;12.390;2023-09-30T11:06:53;8.18;;;1.67;;
31584;SDS011;18191;51.288;12.390;2023-09-30T11:11:44;10.13;;;1.77;;
31584;SDS011;18191;51.288;12.390;2023-09-30T11:16:44;10.30;;;1.63;;
31584;SDS011;18191;51.288;12.390;2023-09-30T11:21:34;11.32;;;2.22;;
31584;SDS011;18191;51.288;12.390;2023-09-30T11:26:31;5.93;;;1.45;;
31584;SDS011;18191;51.288;12.390;2023-09-30T11:31:22;15.45;;;1.30;;
31584;SDS011;18191;51.288;12.390;2023-09-30T11:36:12;9.55;;;1.30;;
31584;SDS011;18191;51.288;12.390;2023-09-30T11:41:05;10.15;;;1.50;;
31584;SDS011;18191;51.288;12.390;2023-09-30T11:46:11;12.23;;;1.50;;
31584;SDS011;18191;51.288;12.390;2023-09-30T11:51:03;11.88;;;1.50;;
31584;SDS011;18191;51.288;12.390;2023-09-30T11:55:54;7.80;;;2.00;;
31584;SDS011;18191;51.288;12.390;2023-09-30T12:00:45;11.02;;;1.77;;
31584;SDS011;18191;51.288;12.390;2023-09-30T12:05:36;16.10;;;2.28;;
31584;SDS011;18191;51.288;12.390;2023-09-30T12:10:26;9.20;;;1.50;;
31584;SDS011;18191;51.288;12.390;2023-09-30T12:15:17;7.65;;;1.35;;
31584;SDS011;18191;51.288;12.390;2023-09-30T12:20:07;9.02;;;1.48;;
31584;SDS011;18191;51.288;12.390;2023-09-30T12:24:58;10.82;;;1.65;;
31584;SDS011;18191;51.288;12.390;2023-09-30T12:29:48;8.65;;;1.95;;
31584;SDS011;18191;51.288;12.390;2023-09-30T12:34:38;5.63;;;1.35;;
31584;SDS011;18191;51.288;12.390;2023-09-30T12:39:28;19.67;;;2.38;;
31584;SDS011;18191;51.288;12.390;2023-09-30T12:44:23;14.30;;;1.63;;
31584;SDS011;18191;51.288;12.390;2023-09-30T12:49:13;5.88;;;2.20;;
31584;SDS011;18191;51.288;12.390;2023-09-30T12:54:03;13.35;;;1.40;;
31584;SDS011;18191;51.288;12.390;2023-09-30T12:58:54;9.38;;;1.48;;
31584;SDS011;18191;51.288;12.390;2023-09-30T13:03:45;5.50;;;1.60;;
31584;SDS011;18191;51.288;12.390;2023-09-30T13:08:36;15.55;;;2.30;;
31584;SDS011;18191;51.288;12.390;2023-09-30T13:13:26;9.70;;;1.57;;
31584;SDS011;18191;51.288;12.390;2023-09-30T13:18:16;6.65;;;1.30;;
31584;SDS011;18191;51.288;12.390;2023-09-30T13:23:07;6.60;;;1.23;;
31584;SDS011;18191;51.288;12.390;2023-09-30T13:27:58;7.45;;;1.67;;
31584;SDS011;18191;51.288;12.390;2023-09-30T13:32:48;8.75;;;1.33;;
31584;SDS011;18191;51.288;12.390;2023-09-30T13:37:38;12.68;;;1.90;;
31584;SDS011;18191;51.288;12.390;2023-09-30T13:42:28;9.32;;;1.40;;
31584;SDS011;18191;51.288;12.390;2023-09-30T13:47:19;8.02;;;1.55;;
31584;SDS011;18191;51.288;12.390;2023-09-30T13:52:09;5.38;;;1.25;;
31584;SDS011;18191;51.288;12.390;2023-09-30T13:56:59;7.78;;;1.40;;
31584;SDS011;18191;51.288;12.390;2023-09-30T14:01:49;6.55;;;1.55;;
31584;SDS011;18191;51.288;12.390;2023-09-30T14:06:40;11.32;;;1.52;;
31584;SDS011;18191;51.288;12.390;2023-09-30T14:11:30;18.17;;;1.30;;
31584;SDS011;18191;51.288;12.390;2023-09-30T14:16:21;8.82;;;1.70;;
31584;SDS011;18191;51.288;12.390;2023-09-30T14:21:11;4.70;;;1.38;;
31584;SDS011;18191;51.288;12.390;2023-09-30T14:26:01;5.85;;;1.50;;
31584;SDS011;18191;51.288;12.390;2023-09-30T14:30:56;7.38;;;1.33;;
31584;SDS011;18191;51.288;12.390;2023-09-30T14:35:46;17.23;;;1.40;;
31584;SDS011;18191;51.288;12.390;2023-09-30T14:40:39;8.07;;;1.48;;
31584;SDS011;18191;51.288;12.390;2023-09-30T14:45:29;10.75;;;1.50;;
31584;SDS011;18191;51.288;12.390;2023-09-30T14:50:21;7.57;;;1.20;;
31584;SDS011;18191;51.288;12.390;2023-09-30T14:55:11;7.95;;;1.40;;
31584;SDS011;18191;51.288;12.390;2023-09-30T15:00:02;24.40;;;1.40;;
31584;SDS011;18191;51.288;12.390;2023-09-30T15:04:52;13.30;;;1.48;;
31584;SDS011;18191;51.288;12.390;2023-09-30T15:09:43;4.55;;;1.33;;
31584;SDS011;18191;51.288;12.390;2023-09-30T15:14:33;7.18;;;1.60;;
31584;SDS011;18191;51.288;12.390;2023-09-30T15:19:23;7.45;;;1.80;;
31584;SDS011;18191;51.288;12.390;2023-09-30T15:24:14;14.87;;;1.40;;
31584;SDS011;18191;51.288;12.390;2023-09-30T15:29:04;8.48;;;1.92;;
31584;SDS011;18191;51.288;12.390;2023-09-30T15:33:54;5.30;;;1.40;;
31584;SDS011;18191;51.288;12.390;2023-09-30T15:38:44;7.70;;;1.05;;
31584;SDS011;18191;51.288;12.390;2023-09-30T15:43:36;10.73;;;1.77;;
31584;SDS011;18191;51.288;12.390;2023-09-30T15:48:26;8.45;;;2.17;;
31584;SDS011;18191;51.288;12.390;2023-09-30T15:53:17;5.38;;;1.45;;
31584;SDS011;18191;51.288;12.390;2023-09-30T15:58:08;5.82;;;1.30;;
31584;SDS011;18191;51.288;12.390;2023-09-30T16:02:58;3.70;;;1.02;;
31584;SDS011;18191;51.288;12.390;2023-09-30T16:07:49;7.68;;;1.50;;
31584;SDS011;18191;51.288;12.390;2023-09-30T16:12:39;4.03;;;1.33;;
31584;SDS011;18191;51.288;12.390;2023-09-30T16:17:29;17.38;;;1.63;;
31584;SDS011;18191;51.288;12.390;2023-09-30T16:22:20;7.13;;;1.00;;
31584;SDS011;18191;51.288;12.390;2023-09-30T16:27:11;6.07;;;1.50;;
31584;SDS011;18191;51.288;12.390;2023-09-30T16:32:01;7.38;;;1.67;;
31584;SDS011;18191;51.288;12.390;2023-09-30T16:36:51;12.38;;;1.60;;
31584;SDS011;18191;51.288;12.390;2023-09-30T16:41:41;11.02;;;1.30;;
31584;SDS011;18191;51.288;12.390;2023-09-30T16:46:31;7.70;;;2.63;;
31584;SDS011;18191;51.288;12.390;2023-09-30T16:51:22;7.47;;;1.70;;
31584;SDS011;18191;51.288;12.390;2023-09-30T17:01:08;11.67;;;1.93;;
31584;SDS011;18191;51.288;12.390;2023-09-30T17:05:58;15.32;;;2.75;;
31584;SDS011;18191;51.288;12.390;2023-09-30T17:10:48;15.23;;;4.32;;
31584;SDS011;18191;51.288;12.390;2023-09-30T17:15:40;16.55;;;5.28;;
31584;SDS011;18191;51.288;12.390;2023-09-30T17:25:21;14.85;;;4.85;;
31584;SDS011;18191;51.288;12.390;2023-09-30T17:35:02;13.52;;;4.57;;
31584;SDS011;18191;51.288;12.390;2023-09-30T17:44:43;14.93;;;5.45;;
31584;SDS011;18191;51.288;12.390;2023-09-30T17:49:33;23.15;;;6.95;;
31584;SDS011;18191;51.288;12.390;2023-09-30T17:54:24;22.60;;;6.90;;
31584;SDS011;18191;51.288;12.390;2023-09-30T17:59:14;27.33;;;6.93;;
31584;SDS011;18191;51.288;12.390;2023-09-30T18:04:04;16.77;;;6.68;;
31584;SDS011;18191;51.288;12.390;2023-09-30T18:08:55;19.80;;;7.85;;
31584;SDS011;18191;51.288;12.390;2023-09-30T18:13:46;18.27;;;7.38;;
31584;SDS011;18191;51.288;12.390;2023-09-30T18:23:27;17.20;;;5.93;;
31584;SDS011;18191;51.288;12.390;2023-09-30T18:28:17;20.48;;;7.38;;
31584;SDS011;18191;51.288;12.390;2023-09-30T18:33:08;20.65;;;8.48;;
31584;SDS011;18191;51.288;12.390;2023-09-30T18:42:49;27.50;;;8.88;;
31584;SDS011;18191;51.288;12.390;2023-09-30T18:47:39;25.30;;;10.73;;
31584;SDS011;18191;51.288;12.390;2023-09-30T18:52:29;25.00;;;9.82;;
31584;SDS011;18191;51.288;12.390;2023-09-30T18:57:19;27.10;;;10.90;;
31584;SDS011;18191;51.288;12.390;2023-09-30T19:02:09;26.38;;;9.73;;
31584;SDS011;18191;51.288;12.390;2023-09-30T19:07:04;24.38;;;10.10;;
31584;SDS011;18191;51.288;12.390;2023-09-30T19:16:45;30.27;;;10.02;;
31584;SDS011;18191;51.288;12.390;2023-09-30T19:21:35;35.72;;;11.32;;
31584;SDS011;18191;51.288;12.390;2023-09-30T19:26:25;37.75;;;12.95;;
31584;SDS011;18191;51.288;12.390;2023-09-30T19:31:16;40.30;;;13.07;;
31584;SDS011;18191;51.288;12.390;2023-09-30T19:36:06;42.73;;;14.13;;
31584;SDS011;18191;51.288;12.390;2023-09-30T19:45:49;34.80;;;13.35;;
31584;SDS011;18191;51.288;12.390;2023-09-30T19:50:39;38.50;;;14.82;;
31584;SDS011;18191;51.288;12.390;2023-09-30T19:55:29;34.90;;;12.32;;
31584;SDS011;18191;51.288;12.390;2023-09-30T20:00:19;34.03;;;12.18;;
31584;SDS011;18191;51.288;12.390;2023-09-30T20:05:09;24.20;;;9.90;;
31584;SDS011;18191;51.288;12.390;2023-09-30T20:10:00;30.30;;;10.63;;
31584;SDS011;18191;51.288;12.390;2023-09-30T20:14:53;33.63;;;10.43;;
31584;SDS011;18191;51.288;12.390;2023-09-30T20:19:43;39.55;;;14.15;;
31584;SDS011;18191;51.288;12.390;2023-09-30T20:24:34;31.30;;;13.45;;
31584;SDS011;18191;51.288;12.390;2023-09-30T20:29:24;33.05;;;13.35;;
31584;SDS011;18191;51.288;12.390;2023-09-30T20:34:15;37.80;;;13.60;;
31584;SDS011;18191;51.288;12.390;2023-09-30T20:39:05;31.70;;;13.10;;
31584;SDS011;18191;51.288;12.390;2023-09-30T20:48:46;26.45;;;10.70;;
31584;SDS011;18191;51.288;12.390;2023-09-30T20:53:37;25.90;;;10.20;;
31584;SDS011;18191;51.288;12.390;2023-09-30T20:58:28;23.45;;;10.90;;
31584;SDS011;18191;51.288;12.390;2023-09-30T21:03:18;36.72;;;12.45;;
31584;SDS011;18191;51.288;12.390;2023-09-30T21:08:09;25.23;;;10.30;;
31584;SDS011;18191;51.288;12.390;2023-09-30T21:12:59;35.07;;;10.90;;
31584;SDS011;18191;51.288;12.390;2023-09-30T21:17:50;24.23;;;10.18;;
31584;SDS011;18191;51.288;12.390;2023-09-30T21:22:40;21.13;;;9.97;;
31584;SDS011;18191;51.288;12.390;2023-09-30T21:27:30;39.57;;;11.23;;
31584;SDS011;18191;51.288;12.390;2023-09-30T21:32:21;33.92;;;10.90;;
31584;SDS011;18191;51.288;12.390;2023-09-30T21:37:12;30.10;;;11.68;;
31584;SDS011;18191;51.288;12.390;2023-09-30T21:42:02;23.85;;;10.55;;
31584;SDS011;18191;51.288;12.390;2023-09-30T21:46:53;27.83;;;10.90;;
31584;SDS011;18191;51.288;12.390;2023-09-30T21:51:43;24.52;;;9.73;;
31584;SDS011;18191;51.288;12.390;2023-09-30T21:56:35;24.30;;;10.10;;
31584;SDS011;18191;51.288;12.390;2023-09-30T22:01:25;27.42;;;9.10;;
31584;SDS011;18191;51.288;12.390;2023-09-30T22:06:15;28.45;;;10.10;;
31584;SDS011;18191;51.288;12.390;2023-09-30T22:11:06;29.08;;;11.13;;
31584;SDS011;18191;51.288;12.390;2023-09-30T22:15:57;48.13;;;11.87;;
31584;SDS011;18191;51.288;12.390;2023-09-30T22:20:47;21.97;;;9.20;;
31584;SDS011;18191;51.288;12.390;2023-09-30T22:25:38;24.67;;;9.02;;
31584;SDS011;18191;51.288;12.390;2023-09-30T22:30:28;18.63;;;8.33;;
31584;SDS011;18191;51.288;12.390;2023-09-30T22:35:20;21.67;;;9.13;;
31584;SDS011;18191;51.288;12.390;2023-09-30T22:40:10;29.73;;;9.60;;
31584;SDS011;18191;51.288;12.390;2023-09-30T22:45:01;24.25;;;9.18;;
31584;SDS011;18191;51.288;12.390;2023-09-30T22:49:51;25.20;;;8.10;;
31584;SDS011;18191;51.288;12.390;2023-09-30T22:54:41;20.55;;;7.68;;
31584;SDS011;18191;51.288;12.390;2023-09-30T22:59:33;17.25;;;8.40;;
31584;SDS011;18191;51.288;12.390;2023-09-30T23:04:23;18.52;;;6.45;;
31584;SDS011;18191;51.288;12.390;2023-09-30T23:09:13;25.25;;;6.22;;
31584;SDS011;18191;51.288;12.390;2023-09-30T23:14:04;16.23;;;5.33;;
31584;SDS011;18191;51.288;12.390;2023-09-30T23:18:54;14.60;;;5.43;;
31584;SDS011;18191;51.288;12.390;2023-09-30T23:23:53;17.05;;;6.25;;
31584;SDS011;18191;51.288;12.390;2023-09-30T23:28:43;15.75;;;4.95;;
31584;SDS011;18191;51.288;12.390;2023-09-30T23:33:35;13.18;;;5.35;;
31584;SDS011;18191;51.288;12.390;2023-09-30T23:38:26;15.35;;;4.78;;
31584;SDS011;18191;51.288;12.390;2023-09-30T23:48:08;14.68;;;4.57;;
31584;SDS011;18191;51.288;12.390;2023-09-30T23:52:58;13.65;;;4.18;;
31584;SDS011;18191;51.288;12.390;2023-09-30T23:57:48;12.98;;;4.63;;
